Time;durP1;ratioP1;P1;durP2;ratioP2;P2;SDS_P1;SDS_P2;PMS_P1;PMS_P2;Temp;Humidity;BMP_temperature;BMP_pressure;BME280_temperature;BME280_humidity;BME280_pressure;Samples;Min_cycle;Max_cycle;Signal;HPM_P1;HPM_P2
2022/08/06 00:01:00;;;;;;;5.38;4.25;;;;;;;;;;10201812;29;20520;-89
2022/08/06 00:06:02;;;;;;;6.13;3.95;;;;;;;;;;10201225;29;20452;-89
2022/08/06 00:11:04;;;;;;;5.25;4.07;;;;;;;;;;10199676;29;20441;-89
2022/08/06 00:16:07;;;;;;;4.63;4.18;;;;;;;;;;10200494;29;20775;-90
2022/08/06 00:21:09;;;;;;;5.95;4.47;;;;;;;;;;10224336;29;20462;-90
2022/08/06 00:26:11;;;;;;;6.00;4.50;;;;;;;;;;10210325;28;20456;-89
2022/08/06 00:31:15;;;;;;;6.05;4.15;;;;;;;;;;10199888;29;20853;-89
2022/08/06 00:36:16;;;;;;;4.50;4.03;;;;;;;;;;10204383;28;20417;-90
2022/08/06 00:41:19;;;;;;;5.03;3.88;;;;;;;;;;10202292;29;20473;-90
2022/08/06 00:46:23;;;;;;;5.35;4.38;;;;;;;;;;10200982;29;20500;-89
2022/08/06 00:51:25;;;;;;;6.50;4.20;;;;;;;;;;10205118;29;20504;-89
2022/08/06 00:56:27;;;;;;;6.27;4.00;;;;;;;;;;10200647;29;20486;-89
2022/08/06 01:01:30;;;;;;;6.45;4.22;;;;;;;;;;10195498;29;20522;-89
2022/08/06 01:06:32;;;;;;;4.95;4.40;;;;;;;;;;10200824;29;20767;-90
2022/08/06 01:11:34;;;;;;;7.55;6.05;;;;;;;;;;10202699;29;20531;-88
2022/08/06 01:16:42;;;;;;;7.63;6.90;;;;;;;;;;10200452;29;20440;-89
2022/08/06 01:21:52;;;;;;;9.30;8.40;;;;;;;;;;10206161;29;20529;-89
2022/08/06 01:27:01;;;;;;;9.73;8.73;;;;;;;;;;10202575;29;20507;-89
2022/08/06 01:32:07;;;;;;;8.53;7.73;;;;;;;;;;10200773;29;20427;-89
2022/08/06 01:37:15;;;;;;;9.10;8.20;;;;;;;;;;10203243;29;20494;-89
2022/08/06 01:42:19;;;;;;;9.48;7.75;;;;;;;;;;10206169;29;20736;-89
2022/08/06 01:47:25;;;;;;;8.38;7.15;;;;;;;;;;10201080;29;20448;-89
2022/08/06 01:52:29;;;;;;;8.68;7.10;;;;;;;;;;10205164;29;20500;-89
2022/08/06 01:57:34;;;;;;;8.67;7.77;;;;;;;;;;10197925;29;20456;-89
2022/08/06 02:02:39;;;;;;;8.27;7.47;;;;;;;;;;10206470;29;20989;-89
2022/08/06 02:07:42;;;;;;;7.80;7.10;;;;;;;;;;10203287;29;20417;-89
2022/08/06 02:12:47;;;;;;;9.40;7.53;;;;;;;;;;10201692;29;20417;-89
2022/08/06 02:17:52;;;;;;;7.37;6.67;;;;;;;;;;10207056;29;20903;-89
2022/08/06 02:22:55;;;;;;;8.00;7.20;;;;;;;;;;10202049;29;20520;-89
2022/08/06 02:28:00;;;;;;;7.50;6.70;;;;;;;;;;10202368;29;20497;-89
2022/08/06 02:33:04;;;;;;;6.63;6.03;;;;;;;;;;10203797;29;20508;-89
2022/08/06 02:38:12;;;;;;;6.67;5.97;;;;;;;;;;10203253;29;20510;-89
2022/08/06 02:43:17;;;;;;;7.88;6.25;;;;;;;;;;10208483;29;20521;-88
2022/08/06 02:48:25;;;;;;;6.35;5.78;;;;;;;;;;10266253;23;20420;-87
2022/08/06 02:53:37;;;;;;;6.10;5.50;;;;;;;;;;10238179;28;20423;-87
2022/08/06 02:58:42;;;;;;;5.85;5.35;;;;;;;;;;10240531;29;20412;-86
2022/08/06 03:03:47;;;;;;;6.28;5.68;;;;;;;;;;10240063;29;20442;-87
2022/08/06 03:08:53;;;;;;;5.97;5.43;;;;;;;;;;10240094;28;20511;-86
2022/08/06 03:13:57;;;;;;;6.03;5.30;;;;;;;;;;10240467;29;20499;-86
2022/08/06 03:19:01;;;;;;;7.13;5.43;;;;;;;;;;10240016;29;20416;-87
2022/08/06 03:24:05;;;;;;;6.53;5.57;;;;;;;;;;10238934;28;20479;-87
2022/08/06 03:29:07;;;;;;;7.13;6.40;;;;;;;;;;10239861;29;20798;-86
2022/08/06 03:34:11;;;;;;;8.23;7.40;;;;;;;;;;10239230;29;20487;-87
2022/08/06 03:39:15;;;;;;;9.73;8.00;;;;;;;;;;10238966;28;20725;-87
2022/08/06 03:44:16;;;;;;;10.65;8.73;;;;;;;;;;10239349;29;20519;-86
2022/08/06 03:49:24;;;;;;;10.90;9.18;;;;;;;;;;10238341;29;20852;-87
2022/08/06 03:54:29;;;;;;;9.67;8.77;;;;;;;;;;10234895;28;20418;-87
2022/08/06 03:59:32;;;;;;;10.77;8.82;;;;;;;;;;10234752;28;20849;-86
2022/08/06 04:04:37;;;;;;;10.15;8.32;;;;;;;;;;10237774;28;20796;-87
2022/08/06 04:09:39;;;;;;;9.25;7.68;;;;;;;;;;10237776;28;20653;-87
2022/08/06 04:14:41;;;;;;;9.60;8.20;;;;;;;;;;10237529;28;20410;-86
2022/08/06 04:19:46;;;;;;;8.55;7.70;;;;;;;;;;10238057;28;20414;-87
2022/08/06 04:24:48;;;;;;;8.20;6.90;;;;;;;;;;10236562;28;20780;-86
2022/08/06 04:29:51;;;;;;;8.35;7.55;;;;;;;;;;10235250;28;20414;-87
2022/08/06 04:34:56;;;;;;;8.60;7.80;;;;;;;;;;10235057;28;20423;-86
2022/08/06 04:39:58;;;;;;;8.63;7.68;;;;;;;;;;10237365;28;20420;-86
2022/08/06 04:45:01;;;;;;;9.43;7.38;;;;;;;;;;10236500;28;20432;-86
2022/08/06 04:50:06;;;;;;;8.45;7.68;;;;;;;;;;10236351;28;20404;-88
2022/08/06 04:55:08;;;;;;;10.55;8.20;;;;;;;;;;10235890;28;20780;-88
2022/08/06 05:00:11;;;;;;;8.55;7.40;;;;;;;;;;10236076;29;20419;-88
2022/08/06 05:05:17;;;;;;;8.68;7.60;;;;;;;;;;10236187;29;20408;-88
2022/08/06 05:10:21;;;;;;;8.95;7.57;;;;;;;;;;10236449;28;20412;-88
2022/08/06 05:15:27;;;;;;;8.10;7.30;;;;;;;;;;10232680;29;20831;-88
2022/08/06 05:20:41;;;;;;;8.20;6.88;;;;;;;;;;10229272;29;22839;-88
2022/08/06 05:25:43;;;;;;;7.43;6.72;;;;;;;;;;10234724;28;20502;-88
2022/08/06 05:30:46;;;;;;;7.33;6.60;;;;;;;;;;10235527;29;20408;-85
2022/08/06 05:35:50;;;;;;;7.13;5.72;;;;;;;;;;10236232;29;20428;-86
2022/08/06 05:40:51;;;;;;;6.28;5.15;;;;;;;;;;10231791;28;20464;-88
2022/08/06 05:45:57;;;;;;;7.32;5.72;;;;;;;;;;10235151;29;20507;-88
2022/08/06 05:51:07;;;;;;;7.38;5.90;;;;;;;;;;10235022;28;20672;-88
2022/08/06 05:56:17;;;;;;;7.05;5.35;;;;;;;;;;10235504;28;20456;-88
2022/08/06 06:01:19;;;;;;;7.00;6.40;;;;;;;;;;10234855;29;20428;-88
2022/08/06 06:06:23;;;;;;;7.80;6.47;;;;;;;;;;10234807;29;20491;-88
2022/08/06 06:11:26;;;;;;;6.47;5.93;;;;;;;;;;10231751;28;20751;-86
2022/08/06 06:16:32;;;;;;;6.90;5.80;;;;;;;;;;10234683;29;20404;-86
2022/08/06 06:21:46;;;;;;;6.37;5.63;;;;;;;;;;10235045;28;20420;-86
2022/08/06 06:26:54;;;;;;;7.33;6.60;;;;;;;;;;10240965;28;20423;-88
2022/08/06 06:32:03;;;;;;;7.10;6.10;;;;;;;;;;10242090;29;20422;-86
2022/08/06 06:37:15;;;;;;;7.20;5.10;;;;;;;;;;10241673;29;20926;-88
2022/08/06 06:42:20;;;;;;;7.20;4.63;;;;;;;;;;10241083;28;20454;-88
2022/08/06 06:47:29;;;;;;;6.43;4.30;;;;;;;;;;10217911;29;20819;-88
2022/08/06 06:52:36;;;;;;;4.57;3.95;;;;;;;;;;10201868;29;20728;-88
2022/08/06 06:57:44;;;;;;;3.72;3.42;;;;;;;;;;10201195;29;20414;-88
2022/08/06 07:02:49;;;;;;;3.85;3.45;;;;;;;;;;10200806;29;20907;-88
2022/08/06 07:07:53;;;;;;;5.40;3.17;;;;;;;;;;10201487;29;20894;-88
2022/08/06 07:12:56;;;;;;;5.28;3.15;;;;;;;;;;10201186;29;20496;-86
2022/08/06 07:18:00;;;;;;;3.10;2.88;;;;;;;;;;10199437;29;20961;-88
2022/08/06 07:23:07;;;;;;;3.00;2.80;;;;;;;;;;10199076;29;20433;-86
2022/08/06 07:28:11;;;;;;;2.95;2.75;;;;;;;;;;10199011;29;20515;-88
2022/08/06 07:33:13;;;;;;;4.07;2.90;;;;;;;;;;10198806;29;20505;-88
2022/08/06 07:38:18;;;;;;;3.80;3.13;;;;;;;;;;10197976;29;20414;-85
2022/08/06 07:43:23;;;;;;;3.25;3.03;;;;;;;;;;10193818;29;20436;-86
2022/08/06 07:48:31;;;;;;;3.10;2.90;;;;;;;;;;10229615;28;20413;-86
2022/08/06 07:53:36;;;;;;;3.10;2.80;;;;;;;;;;10238949;28;20503;-88
2022/08/06 07:58:38;;;;;;;3.00;2.80;;;;;;;;;;10238864;28;20450;-85
2022/08/06 08:09:07;;;;;;;3.40;2.90;;;;;;;;;;10232958;28;20885;-86
2022/08/06 08:14:10;;;;;;;4.80;2.65;;;;;;;;;;10237357;28;20442;-85
2022/08/06 08:19:30;;;;;;;3.30;2.78;;;;;;;;;;10236764;28;20439;-85
2022/08/06 08:24:35;;;;;;;3.33;2.80;;;;;;;;;;10234001;28;20927;-88
2022/08/06 08:29:38;;;;;;;3.20;2.90;;;;;;;;;;10236666;28;20483;-85
2022/08/06 08:34:40;;;;;;;3.17;2.87;;;;;;;;;;10237037;28;20404;-85
2022/08/06 08:39:43;;;;;;;2.95;2.75;;;;;;;;;;10235786;28;20431;-85
2022/08/06 08:44:47;;;;;;;4.90;2.80;;;;;;;;;;10236521;28;20531;-85
2022/08/06 08:49:55;;;;;;;3.38;2.60;;;;;;;;;;10235653;28;20761;-86
2022/08/06 08:55:02;;;;;;;2.90;2.70;;;;;;;;;;10232457;28;20412;-86
2022/08/06 09:00:07;;;;;;;2.97;2.67;;;;;;;;;;10233792;29;20436;-88
2022/08/06 09:05:10;;;;;;;3.70;2.28;;;;;;;;;;10235726;29;20428;-85
2022/08/06 09:10:14;;;;;;;3.50;2.03;;;;;;;;;;10234922;28;20442;-85
2022/08/06 09:15:20;;;;;;;3.03;2.33;;;;;;;;;;10231332;29;20960;-86
2022/08/06 09:20:22;;;;;;;2.33;2.20;;;;;;;;;;10229027;29;20451;-86
2022/08/06 09:25:45;;;;;;;2.35;2.25;;;;;;;;;;10232509;28;20539;-86
2022/08/06 09:30:58;;;;;;;2.50;2.30;;;;;;;;;;10232742;28;20420;-86
2022/08/06 09:36:02;;;;;;;3.40;2.30;;;;;;;;;;10232332;28;20412;-86
2022/08/06 09:41:07;;;;;;;2.67;2.47;;;;;;;;;;10231309;28;20904;-86
2022/08/06 09:46:09;;;;;;;2.63;2.47;;;;;;;;;;10229019;29;20419;-86
2022/08/06 09:51:22;;;;;;;2.60;2.40;;;;;;;;;;10232071;29;20420;-86
2022/08/06 09:56:27;;;;;;;2.20;2.00;;;;;;;;;;10230324;28;20496;-87
2022/08/06 10:01:30;;;;;;;4.70;2.70;;;;;;;;;;10238163;28;20432;-86
2022/08/06 10:06:32;;;;;;;2.53;2.30;;;;;;;;;;10234507;28;20431;-86
2022/08/06 10:11:38;;;;;;;2.50;2.30;;;;;;;;;;10234661;28;20407;-86
2022/08/06 10:16:39;;;;;;;2.65;2.45;;;;;;;;;;10235081;29;20495;-86
2022/08/06 10:21:44;;;;;;;2.57;2.37;;;;;;;;;;10236724;29;20859;-86
2022/08/06 10:26:49;;;;;;;2.70;2.50;;;;;;;;;;10237598;28;20423;-86
2022/08/06 10:31:54;;;;;;;3.20;2.70;;;;;;;;;;10236385;29;20414;-86
2022/08/06 10:37:02;;;;;;;3.05;2.40;;;;;;;;;;10237809;29;20408;-86
2022/08/06 10:42:06;;;;;;;3.27;2.57;;;;;;;;;;10237840;28;20439;-86
2022/08/06 10:47:09;;;;;;;2.50;2.30;;;;;;;;;;10236668;28;20416;-86
2022/08/06 10:52:11;;;;;;;2.38;2.22;;;;;;;;;;10239035;28;20419;-86
2022/08/06 10:57:15;;;;;;;2.73;2.53;;;;;;;;;;10239007;28;20424;-86
2022/08/06 11:02:29;;;;;;;2.80;2.60;;;;;;;;;;10242411;28;20423;-86
2022/08/06 11:07:52;;;;;;;3.10;2.90;;;;;;;;;;10236282;28;20495;-86
2022/08/06 11:12:59;;;;;;;3.60;3.30;;;;;;;;;;10236022;28;20408;-86
2022/08/06 11:18:05;;;;;;;2.97;2.80;;;;;;;;;;10238709;29;20487;-86
2022/08/06 11:23:27;;;;;;;3.30;3.00;;;;;;;;;;10238082;28;20427;-86
2022/08/06 11:29:01;;;;;;;3.77;2.90;;;;;;;;;;10237548;28;20412;-86
2022/08/06 11:34:05;;;;;;;3.40;2.95;;;;;;;;;;10237333;28;20483;-86
2022/08/06 11:39:07;;;;;;;3.00;2.80;;;;;;;;;;10237515;28;20427;-86
2022/08/06 11:44:10;;;;;;;3.22;2.95;;;;;;;;;;10240163;28;20444;-86
2022/08/06 11:49:20;;;;;;;3.00;2.70;;;;;;;;;;10242989;28;20412;-86
2022/08/06 11:54:24;;;;;;;3.30;3.00;;;;;;;;;;10250492;28;20422;-86
2022/08/06 11:59:28;;;;;;;3.57;3.00;;;;;;;;;;10235552;28;20410;-87
2022/08/06 12:04:46;;;;;;;3.40;3.10;;;;;;;;;;10233010;29;20828;-86
2022/08/06 12:09:59;;;;;;;3.55;3.25;;;;;;;;;;10240590;28;20508;-86
2022/08/06 12:15:05;;;;;;;3.20;3.00;;;;;;;;;;10232790;29;20904;-86
2022/08/06 12:20:09;;;;;;;3.63;3.30;;;;;;;;;;10234776;28;20774;-86
2022/08/06 12:25:12;;;;;;;3.50;3.13;;;;;;;;;;10237596;28;21183;-86
2022/08/06 12:30:17;;;;;;;3.35;3.15;;;;;;;;;;10232752;28;20949;-86
2022/08/06 12:35:19;;;;;;;3.40;3.20;;;;;;;;;;10239827;28;20466;-86
2022/08/06 12:40:27;;;;;;;3.33;3.03;;;;;;;;;;10240075;28;20845;-86
2022/08/06 12:45:33;;;;;;;3.90;3.00;;;;;;;;;;10248544;28;20436;-86
2022/08/06 12:50:37;;;;;;;3.20;2.90;;;;;;;;;;10231107;28;20424;-86
2022/08/06 12:55:44;;;;;;;3.22;3.03;;;;;;;;;;10229225;28;20820;-86
2022/08/06 13:00:50;;;;;;;3.38;3.08;;;;;;;;;;10231916;29;20430;-86
2022/08/06 13:05:53;;;;;;;3.20;2.90;;;;;;;;;;10233843;28;20515;-86
2022/08/06 13:10:56;;;;;;;2.90;2.70;;;;;;;;;;10237302;28;20499;-85
2022/08/06 13:16:05;;;;;;;3.27;2.97;;;;;;;;;;10237748;28;20450;-85
2022/08/06 13:21:17;;;;;;;4.18;3.03;;;;;;;;;;10237573;28;20499;-86
2022/08/06 13:26:21;;;;;;;3.00;2.70;;;;;;;;;;10236910;28;20873;-86
2022/08/06 13:31:24;;;;;;;8.75;2.40;;;;;;;;;;10233524;28;20487;-86
2022/08/06 13:36:27;;;;;;;4.43;2.13;;;;;;;;;;10236130;28;20400;-85
2022/08/06 13:41:31;;;;;;;7.10;2.47;;;;;;;;;;10236915;28;20499;-85
2022/08/06 13:46:44;;;;;;;2.97;2.30;;;;;;;;;;10236087;28;20431;-85
2022/08/06 13:51:47;;;;;;;5.32;2.30;;;;;;;;;;10235728;28;20424;-86
2022/08/06 13:56:50;;;;;;;6.88;2.13;;;;;;;;;;10235905;28;20428;-85
2022/08/06 14:01:54;;;;;;;4.75;2.28;;;;;;;;;;10233128;28;20412;-85
2022/08/06 14:06:57;;;;;;;6.05;2.25;;;;;;;;;;10235263;29;20430;-85
2022/08/06 14:12:00;;;;;;;4.18;2.20;;;;;;;;;;10232841;28;20420;-85
2022/08/06 14:17:04;;;;;;;3.22;2.15;;;;;;;;;;10231924;29;20418;-84
2022/08/06 14:22:07;;;;;;;16.95;4.13;;;;;;;;;;10231737;28;20963;-85
2022/08/06 14:27:12;;;;;;;8.75;3.88;;;;;;;;;;10227394;28;20499;-85
2022/08/06 14:32:16;;;;;;;9.93;4.60;;;;;;;;;;10230595;28;20427;-86
2022/08/06 14:37:18;;;;;;;8.93;4.45;;;;;;;;;;10236693;28;20408;-86
2022/08/06 14:52:57;;;;;;;5.80;4.45;;;;;;;;;;10191420;29;20495;-88
2022/08/06 14:57:59;;;;;;;7.13;4.53;;;;;;;;;;10203891;29;20424;-88
2022/08/06 15:03:02;;;;;;;5.00;4.00;;;;;;;;;;10193504;28;20427;-88
2022/08/06 15:08:07;;;;;;;4.00;3.42;;;;;;;;;;10206712;28;20813;-88
2022/08/06 15:13:09;;;;;;;5.43;3.67;;;;;;;;;;10185799;29;20425;-88
2022/08/06 15:18:14;;;;;;;6.13;4.10;;;;;;;;;;10199356;29;20414;-89
2022/08/06 15:23:16;;;;;;;3.90;3.43;;;;;;;;;;10199456;29;20927;-87
2022/08/06 15:28:18;;;;;;;3.13;2.83;;;;;;;;;;10196138;29;20425;-88
2022/08/06 15:33:22;;;;;;;4.70;2.60;;;;;;;;;;10192278;29;20419;-79
2022/08/06 15:38:25;;;;;;;2.97;2.70;;;;;;;;;;10192681;29;20778;-88
2022/08/06 15:43:28;;;;;;;3.20;2.90;;;;;;;;;;10193054;29;20919;-88
2022/08/06 15:48:31;;;;;;;3.08;2.80;;;;;;;;;;10203146;29;20428;-87
2022/08/06 15:53:33;;;;;;;3.22;2.92;;;;;;;;;;10202830;29;20417;-87
2022/08/06 15:58:35;;;;;;;3.20;2.90;;;;;;;;;;10205790;29;20798;-86
2022/08/06 16:03:38;;;;;;;3.15;2.80;;;;;;;;;;10203839;29;20426;-86
2022/08/06 16:08:40;;;;;;;2.97;2.78;;;;;;;;;;10203549;29;20426;-86
2022/08/06 16:13:42;;;;;;;3.05;2.75;;;;;;;;;;10201707;29;20517;-86
2022/08/06 16:18:45;;;;;;;2.33;2.13;;;;;;;;;;10200989;29;20459;-87
2022/08/06 16:23:47;;;;;;;2.70;2.25;;;;;;;;;;10200844;29;20522;-86
2022/08/06 16:28:49;;;;;;;2.38;1.90;;;;;;;;;;10202461;29;20452;-88
2022/08/06 16:33:52;;;;;;;2.27;2.17;;;;;;;;;;10192620;29;20505;-89
2022/08/06 16:38:54;;;;;;;2.45;2.25;;;;;;;;;;10195631;29;20913;-88
2022/08/06 16:43:56;;;;;;;3.20;2.38;;;;;;;;;;10195301;29;21139;-88
2022/08/06 16:48:59;;;;;;;2.00;1.80;;;;;;;;;;10203627;28;20884;-88
2022/08/06 16:54:01;;;;;;;2.25;2.05;;;;;;;;;;10232047;28;20431;-88
2022/08/06 16:59:02;;;;;;;2.37;2.17;;;;;;;;;;10229694;28;20415;-88
2022/08/06 17:04:06;;;;;;;2.20;2.00;;;;;;;;;;10232939;29;20916;-87
2022/08/06 17:09:08;;;;;;;2.35;1.98;;;;;;;;;;10231918;28;20515;-89
2022/08/06 17:14:10;;;;;;;2.10;1.90;;;;;;;;;;10230112;29;20420;-89
2022/08/06 17:19:13;;;;;;;1.83;1.73;;;;;;;;;;10229174;28;20539;-89
2022/08/06 17:24:15;;;;;;;1.92;1.83;;;;;;;;;;10225721;28;20633;-89
2022/08/06 17:29:17;;;;;;;1.97;1.87;;;;;;;;;;10240998;28;20408;-88
2022/08/06 17:34:20;;;;;;;2.00;1.80;;;;;;;;;;10236720;28;20404;-88
2022/08/06 17:39:21;;;;;;;1.85;1.75;;;;;;;;;;10235743;28;20483;-88
2022/08/06 17:44:24;;;;;;;2.13;1.95;;;;;;;;;;10237779;28;20432;-90
2022/08/06 17:49:27;;;;;;;3.40;2.20;;;;;;;;;;10233413;28;20922;-89
2022/08/06 17:54:29;;;;;;;2.28;2.17;;;;;;;;;;10230946;28;20845;-89
2022/08/06 17:59:31;;;;;;;2.10;1.90;;;;;;;;;;10234924;28;20438;-89
2022/08/06 18:04:34;;;;;;;2.40;2.10;;;;;;;;;;10235124;28;20455;-89
2022/08/06 18:09:36;;;;;;;2.70;2.50;;;;;;;;;;10236417;28;20884;-89
2022/08/06 18:14:38;;;;;;;2.15;2.05;;;;;;;;;;10235028;28;20416;-90
2022/08/06 18:19:43;;;;;;;2.30;2.10;;;;;;;;;;10231011;29;20416;-89
2022/08/06 18:24:45;;;;;;;2.70;2.17;;;;;;;;;;10237561;28;20438;-89
2022/08/06 18:29:47;;;;;;;2.65;2.10;;;;;;;;;;10240552;28;20649;-90
2022/08/06 18:34:50;;;;;;;2.10;1.90;;;;;;;;;;10240567;29;20419;-90
2022/08/06 18:39:52;;;;;;;2.13;2.00;;;;;;;;;;10238990;28;20495;-89
2022/08/06 18:44:54;;;;;;;2.60;2.40;;;;;;;;;;10232236;28;20442;-88
2022/08/06 18:49:57;;;;;;;3.30;2.40;;;;;;;;;;10237201;29;20419;-88
2022/08/06 18:55:02;;;;;;;4.47;3.15;;;;;;;;;;10235083;28;20508;-88
2022/08/06 19:00:05;;;;;;;2.75;2.55;;;;;;;;;;10235946;29;20968;-88
2022/08/06 19:05:09;;;;;;;3.17;2.95;;;;;;;;;;10240443;28;20424;-88
2022/08/06 19:10:11;;;;;;;3.22;2.95;;;;;;;;;;10235880;28;20408;-88
2022/08/06 19:15:12;;;;;;;3.42;2.60;;;;;;;;;;10233230;28;20506;-87
2022/08/06 19:20:17;;;;;;;3.25;2.95;;;;;;;;;;10243117;28;20515;-87
2022/08/06 19:25:20;;;;;;;2.50;2.30;;;;;;;;;;10235500;28;20439;-88
2022/08/06 19:30:22;;;;;;;2.40;2.20;;;;;;;;;;10236167;28;20422;-88
2022/08/06 19:35:27;;;;;;;2.88;2.47;;;;;;;;;;10260518;28;20420;-87
2022/08/06 19:40:48;;;;;;;3.37;2.30;;;;;;;;;;10253388;28;20463;-88
2022/08/06 19:45:51;;;;;;;2.80;2.42;;;;;;;;;;10237756;28;20764;-88
2022/08/06 19:50:54;;;;;;;2.35;2.15;;;;;;;;;;10236714;28;20900;-88
2022/08/06 19:55:56;;;;;;;3.10;1.83;;;;;;;;;;10234656;28;20908;-88
2022/08/06 20:01:07;;;;;;;1.75;1.40;;;;;;;;;;10233761;28;20533;-87
2022/08/06 20:06:11;;;;;;;1.98;1.48;;;;;;;;;;10234948;29;20503;-87
2022/08/06 20:11:13;;;;;;;2.72;1.40;;;;;;;;;;10235057;28;20424;-88
2022/08/06 20:16:17;;;;;;;3.00;1.40;;;;;;;;;;10235840;28;20412;-88
2022/08/06 20:21:20;;;;;;;2.30;1.55;;;;;;;;;;10235328;28;20435;-87
2022/08/06 20:26:23;;;;;;;2.13;1.50;;;;;;;;;;10237876;28;20591;-87
2022/08/06 20:31:25;;;;;;;1.40;1.30;;;;;;;;;;10232481;28;20427;-88
2022/08/06 20:36:29;;;;;;;2.43;1.50;;;;;;;;;;10233161;28;20446;-88
2022/08/06 20:41:31;;;;;;;2.20;1.70;;;;;;;;;;10233014;28;21003;-87
2022/08/06 20:46:35;;;;;;;2.53;1.50;;;;;;;;;;10235185;29;20506;-88
2022/08/06 20:51:39;;;;;;;2.53;1.45;;;;;;;;;;10233547;29;20412;-88
2022/08/06 20:56:41;;;;;;;2.00;1.80;;;;;;;;;;10229373;28;20424;-87
2022/08/06 21:01:43;;;;;;;2.63;1.73;;;;;;;;;;10233446;29;20414;-87
2022/08/06 21:06:46;;;;;;;2.40;1.73;;;;;;;;;;10231801;28;20442;-87
2022/08/06 21:11:48;;;;;;;2.30;1.80;;;;;;;;;;10238484;28;20416;-87
2022/08/06 21:16:50;;;;;;;2.63;1.80;;;;;;;;;;10237331;28;20420;-87
2022/08/06 21:21:53;;;;;;;2.67;2.10;;;;;;;;;;10237209;28;20407;-87
2022/08/06 21:26:55;;;;;;;2.55;1.92;;;;;;;;;;10237968;28;20523;-87
2022/08/06 21:31:58;;;;;;;2.30;2.10;;;;;;;;;;10241104;28;20507;-87
2022/08/06 21:37:02;;;;;;;3.38;2.15;;;;;;;;;;10241758;28;20972;-86
2022/08/06 21:42:06;;;;;;;4.30;2.28;;;;;;;;;;10236330;28;20411;-86
2022/08/06 21:47:08;;;;;;;4.20;2.60;;;;;;;;;;10235606;28;20439;-87
2022/08/06 21:52:11;;;;;;;3.00;2.50;;;;;;;;;;10234330;28;20503;-87
2022/08/06 21:57:13;;;;;;;3.53;2.20;;;;;;;;;;10241050;28;20672;-87
2022/08/06 22:02:15;;;;;;;2.15;1.98;;;;;;;;;;10244334;28;20422;-87
2022/08/06 22:07:19;;;;;;;4.82;2.50;;;;;;;;;;10242432;28;20845;-86
2022/08/06 22:12:21;;;;;;;3.70;2.53;;;;;;;;;;10241153;28;20852;-87
2022/08/06 22:17:23;;;;;;;3.33;2.40;;;;;;;;;;10241133;29;20494;-87
2022/08/06 22:22:26;;;;;;;4.05;2.45;;;;;;;;;;10239298;29;20444;-86
2022/08/06 22:27:28;;;;;;;2.40;2.20;;;;;;;;;;10241057;28;20434;-87
2022/08/06 22:32:29;;;;;;;2.60;2.13;;;;;;;;;;10241325;29;20400;-86
2022/08/06 22:37:36;;;;;;;3.72;2.08;;;;;;;;;;10241675;29;20416;-86
2022/08/06 22:42:38;;;;;;;2.00;1.90;;;;;;;;;;10242112;28;21349;-86
2022/08/06 22:47:40;;;;;;;4.13;1.93;;;;;;;;;;10242132;29;20428;-86
2022/08/06 22:52:43;;;;;;;2.30;1.93;;;;;;;;;;10242096;29;20456;-86
2022/08/06 22:57:46;;;;;;;2.65;1.80;;;;;;;;;;10241953;29;20412;-86
2022/08/06 23:02:48;;;;;;;2.37;2.13;;;;;;;;;;10242005;29;20407;-86
2022/08/06 23:07:51;;;;;;;2.40;2.10;;;;;;;;;;10241696;28;20519;-86
2022/08/06 23:12:53;;;;;;;2.20;1.75;;;;;;;;;;10237339;28;20908;-86
2022/08/06 23:17:55;;;;;;;2.28;1.92;;;;;;;;;;10233200;29;20761;-86
2022/08/06 23:22:58;;;;;;;1.90;1.80;;;;;;;;;;10235289;28;20900;-86
2022/08/06 23:28:00;;;;;;;2.00;1.80;;;;;;;;;;10233483;29;20446;-86
2022/08/06 23:33:02;;;;;;;2.03;1.73;;;;;;;;;;10239713;29;20430;-86
2022/08/06 23:38:05;;;;;;;3.17;1.95;;;;;;;;;;10240329;29;20899;-86
2022/08/06 23:43:07;;;;;;;3.00;1.77;;;;;;;;;;10239312;28;20416;-86
2022/08/06 23:48:09;;;;;;;1.70;1.60;;;;;;;;;;10238002;29;20463;-86
2022/08/06 23:53:12;;;;;;;2.80;1.80;;;;;;;;;;10239634;28;20417;-87
2022/08/06 23:58:14;;;;;;;2.80;1.70;;;;;;;;;;10240533;28;20424;-86
